createdAt,value
2023-04-26T00:01:36.764Z,2.90
2023-04-26T00:06:38.447Z,4.47
2023-04-26T00:11:40.094Z,5.78
2023-04-26T00:16:41.810Z,7.13
2023-04-26T00:21:43.579Z,3.55
2023-04-26T00:26:45.192Z,3.53
2023-04-26T00:31:46.917Z,3.72
2023-04-26T00:36:48.563Z,2.78
2023-04-26T00:41:50.266Z,2.15
2023-04-26T00:46:53.885Z,2.72
2023-04-26T00:51:55.620Z,2.55
2023-04-26T00:56:57.556Z,3.15
2023-04-26T01:02:00.282Z,2.83
2023-04-26T01:07:02.968Z,2.78
2023-04-26T01:12:09.152Z,4.07
2023-04-26T01:17:12.031Z,3.08
2023-04-26T01:22:14.789Z,2.80
2023-04-26T01:27:17.872Z,3.58
2023-04-26T01:32:19.494Z,3.30
2023-04-26T01:37:21.185Z,2.80
2023-04-26T01:42:22.849Z,3.85
2023-04-26T01:47:26.390Z,4.88
2023-04-26T01:52:28.073Z,6.85
2023-04-26T01:57:29.687Z,3.63
2023-04-26T02:02:31.532Z,4.47
2023-04-26T02:07:33.187Z,5.30
2023-04-26T02:12:34.854Z,4.20
2023-04-26T02:17:37.856Z,5.32
2023-04-26T02:22:39.591Z,3.85
2023-04-26T02:27:41.979Z,4.30
2023-04-26T02:32:43.614Z,3.78
2023-04-26T02:37:49.054Z,3.25
2023-04-26T02:42:50.714Z,3.70
2023-04-26T02:47:52.584Z,3.63
2023-04-26T02:52:54.258Z,8.00
2023-04-26T02:57:56.023Z,3.97
2023-04-26T03:02:59.522Z,3.83
2023-04-26T03:08:01.257Z,3.80
2023-04-26T03:13:05.014Z,3.30
2023-04-26T03:18:07.348Z,3.40
2023-04-26T03:23:09.349Z,4.78
2023-04-26T03:28:12.043Z,3.60
2023-04-26T03:33:14.326Z,3.63
2023-04-26T03:38:16.234Z,3.60
2023-04-26T03:43:18.292Z,3.60
2023-04-26T03:48:19.982Z,3.13
2023-04-26T03:53:22.023Z,3.30
2023-04-26T03:58:26.037Z,3.63
2023-04-26T04:03:30.259Z,3.25
2023-04-26T04:08:32.184Z,3.38
2023-04-26T04:13:33.835Z,4.07
2023-04-26T04:18:35.957Z,3.33
2023-04-26T04:23:38.875Z,3.15
2023-04-26T04:28:45.610Z,3.00
2023-04-26T04:33:47.595Z,3.58
2023-04-26T04:38:49.850Z,2.90
2023-04-26T04:43:53.982Z,3.92
2023-04-26T04:48:56.207Z,3.95
2023-04-26T04:53:57.939Z,2.90
2023-04-26T04:58:59.707Z,3.65
2023-04-26T05:04:01.882Z,3.47
2023-04-26T05:09:05.857Z,3.17
2023-04-26T05:14:08.049Z,4.97
2023-04-26T05:19:09.888Z,2.97
2023-04-26T05:24:11.949Z,3.38
2023-04-26T05:29:13.829Z,2.80
2023-04-26T05:34:27.020Z,3.67
2023-04-26T05:39:32.016Z,3.25
2023-04-26T05:44:33.891Z,3.30
2023-04-26T05:49:37.031Z,3.90
2023-04-26T05:54:39.215Z,4.20
2023-04-26T05:59:41.330Z,3.58
2023-04-26T06:04:43.706Z,3.80
2023-04-26T06:09:50.059Z,3.17
2023-04-26T06:14:51.940Z,3.25
2023-04-26T06:19:56.597Z,4.05
2023-04-26T06:24:58.337Z,3.90
2023-04-26T06:30:01.103Z,3.38
2023-04-26T06:35:05.532Z,3.75
2023-04-26T06:40:08.122Z,3.38
2023-04-26T06:45:11.490Z,3.35
2023-04-26T06:50:13.241Z,3.38
2023-04-26T06:55:15.229Z,3.13
2023-04-26T07:00:18.198Z,3.38
2023-04-26T07:05:20.076Z,2.97
2023-04-26T07:10:22.040Z,3.33
2023-04-26T07:15:24.707Z,3.72
2023-04-26T07:20:26.419Z,3.63
2023-04-26T07:25:28.041Z,3.60
2023-04-26T07:30:32.527Z,2.58
2023-04-26T07:35:35.705Z,2.38
2023-04-26T07:40:37.525Z,2.10
2023-04-26T07:45:39.205Z,3.10
2023-04-26T07:50:40.991Z,2.80
2023-04-26T07:55:42.686Z,2.75
2023-04-26T08:00:44.291Z,2.50
2023-04-26T08:05:46.421Z,2.75
2023-04-26T08:10:48.558Z,2.30
2023-04-26T08:15:50.370Z,2.33
2023-04-26T08:20:52.248Z,3.15
2023-04-26T08:25:54.163Z,2.25
2023-04-26T08:30:55.898Z,2.50
2023-04-26T08:35:59.995Z,2.50
2023-04-26T08:41:04.030Z,2.38
2023-04-26T08:46:09.490Z,3.28
2023-04-26T08:51:13.259Z,2.00
2023-04-26T08:56:15.092Z,2.22
2023-04-26T09:01:18.493Z,2.83
2023-04-26T09:06:20.499Z,2.40
2023-04-26T09:11:22.503Z,2.83
2023-04-26T09:16:39.478Z,2.83
2023-04-26T09:21:46.540Z,2.08
2023-04-26T09:27:03.440Z,2.20
2023-04-26T09:32:05.471Z,2.47
2023-04-26T09:37:13.928Z,2.20
2023-04-26T09:42:18.931Z,1.75
2023-04-26T09:47:22.181Z,2.17
2023-04-26T09:52:23.895Z,2.75
2023-04-26T09:57:25.544Z,3.00
2023-04-26T10:02:28.098Z,5.03
2023-04-26T10:07:30.428Z,2.60
2023-04-26T10:12:32.122Z,1.55
2023-04-26T10:17:33.828Z,2.60
2023-04-26T10:22:43.538Z,2.50
2023-04-26T10:27:46.925Z,3.20
2023-04-26T10:32:57.990Z,3.33
2023-04-26T10:37:59.823Z,2.72
2023-04-26T10:43:17.210Z,2.65
2023-04-26T10:48:29.023Z,2.33
2023-04-26T10:53:32.589Z,1.73
2023-04-26T10:58:35.609Z,2.40
2023-04-26T11:03:38.598Z,2.25
2023-04-26T11:08:40.518Z,2.73
2023-04-26T11:13:44.201Z,2.58
2023-04-26T11:18:47.319Z,2.17
2023-04-26T11:23:55.672Z,2.50
2023-04-26T11:28:57.491Z,2.47
2023-04-26T11:34:05.365Z,2.58
2023-04-26T11:39:07.204Z,3.10
2023-04-26T11:44:11.630Z,2.78
2023-04-26T11:49:13.768Z,2.25
2023-04-26T11:54:31.771Z,2.75
2023-04-26T11:59:33.392Z,2.97
2023-04-26T12:04:35.237Z,2.78
2023-04-26T12:09:42.691Z,3.17
2023-04-26T12:14:47.011Z,2.47
2023-04-26T12:19:50.269Z,2.20
2023-04-26T12:25:05.386Z,3.22
2023-04-26T12:30:07.796Z,3.10
2023-04-26T12:35:09.697Z,2.97
2023-04-26T12:40:12.393Z,3.20
2023-04-26T12:45:14.032Z,3.38
2023-04-26T12:50:18.478Z,2.15
2023-04-26T12:55:20.519Z,2.42
2023-04-26T13:00:22.737Z,3.00
2023-04-26T13:05:27.228Z,2.42
2023-04-26T13:10:29.013Z,2.70
2023-04-26T13:15:30.659Z,2.53
2023-04-26T13:20:32.304Z,2.70
2023-04-26T13:25:33.998Z,2.97
2023-04-26T13:30:35.712Z,2.38
2023-04-26T13:35:37.396Z,2.72
2023-04-26T13:40:39.123Z,3.05
2023-04-26T13:45:41.082Z,2.10
2023-04-26T13:50:42.820Z,2.22
2023-04-26T13:55:44.486Z,2.42
2023-04-26T14:00:46.271Z,2.08
2023-04-26T14:05:47.891Z,2.50
2023-04-26T14:10:49.556Z,2.47
2023-04-26T14:15:51.263Z,2.22
2023-04-26T14:20:52.939Z,2.20
2023-04-26T14:25:54.642Z,2.53
2023-04-26T14:30:56.403Z,2.90
2023-04-26T14:35:58.164Z,2.40
2023-04-26T14:40:59.807Z,2.55
2023-04-26T14:46:01.610Z,2.10
2023-04-26T14:51:03.287Z,2.10
2023-04-26T14:56:07.531Z,2.25
2023-04-26T15:01:09.475Z,2.50
2023-04-26T15:06:11.131Z,1.92
2023-04-26T15:11:13.707Z,2.10
2023-04-26T15:16:16.336Z,2.40
2023-04-26T15:21:21.613Z,2.25
2023-04-26T15:26:23.372Z,2.60
2023-04-26T15:31:25.140Z,1.98
2023-04-26T15:36:26.748Z,2.63
2023-04-26T15:41:28.369Z,2.45
2023-04-26T15:46:30.161Z,2.47
2023-04-26T15:51:31.924Z,2.90
2023-04-26T15:56:33.554Z,3.05
2023-04-26T16:01:35.205Z,2.78
2023-04-26T16:06:37.011Z,1.92
2023-04-26T16:11:38.641Z,2.28
2023-04-26T16:16:41.410Z,2.25
2023-04-26T16:21:43.243Z,2.17
2023-04-26T16:26:44.857Z,2.33
2023-04-26T16:31:46.580Z,2.30
2023-04-26T16:36:48.271Z,2.28
2023-04-26T16:41:49.880Z,2.80
2023-04-26T16:46:51.488Z,2.10
2023-04-26T16:51:58.495Z,1.92
2023-04-26T16:57:00.140Z,2.38
2023-04-26T17:02:02.284Z,2.25
2023-04-26T17:07:04.164Z,3.17
2023-04-26T17:12:07.483Z,2.50
2023-04-26T17:17:09.076Z,2.17
2023-04-26T17:22:11.371Z,2.78
2023-04-26T17:27:12.974Z,2.47
2023-04-26T17:32:14.684Z,2.55
2023-04-26T17:37:16.370Z,3.50
2023-04-26T17:42:18.046Z,3.17
2023-04-26T17:47:19.644Z,2.28
2023-04-26T17:52:21.294Z,3.00
2023-04-26T17:57:23.992Z,2.70
2023-04-26T18:02:25.930Z,3.17
2023-04-26T18:07:27.672Z,3.67
2023-04-26T18:12:31.861Z,3.15
2023-04-26T18:17:33.543Z,2.53
2023-04-26T18:22:35.196Z,3.25
2023-04-26T18:27:36.811Z,3.10
2023-04-26T18:32:38.598Z,2.85
2023-04-26T18:37:41.213Z,2.72
2023-04-26T18:42:45.053Z,3.13
2023-04-26T18:47:47.456Z,3.25
2023-04-26T18:52:49.079Z,2.88
2023-04-26T18:57:50.703Z,2.85
2023-04-26T19:02:53.462Z,2.95
2023-04-26T19:07:55.163Z,3.97
2023-04-26T19:12:56.901Z,3.03
2023-04-26T19:17:58.543Z,2.80
2023-04-26T19:23:00.205Z,4.05
2023-04-26T19:28:01.820Z,3.95
2023-04-26T19:33:03.844Z,3.55
2023-04-26T19:38:06.839Z,3.33
2023-04-26T19:43:08.474Z,4.63
2023-04-26T19:48:11.072Z,3.65
2023-04-26T19:53:14.218Z,3.50
2023-04-26T19:58:16.339Z,3.08
2023-04-26T20:03:18.127Z,3.45
2023-04-26T20:08:19.837Z,3.50
2023-04-26T20:13:21.508Z,3.80
2023-04-26T20:18:23.469Z,4.15
2023-04-26T20:23:25.160Z,3.40
2023-04-26T20:28:26.813Z,3.22
2023-04-26T20:33:29.184Z,3.38
2023-04-26T20:38:30.797Z,3.75
2023-04-26T20:43:32.999Z,3.65
2023-04-26T20:48:34.651Z,3.75
2023-04-26T20:53:36.430Z,3.63
2023-04-26T20:58:38.147Z,4.60
2023-04-26T21:03:39.991Z,5.57
2023-04-26T21:08:43.071Z,5.20
2023-04-26T21:13:46.511Z,4.85
2023-04-26T21:18:48.134Z,4.00
2023-04-26T21:23:49.740Z,4.90
2023-04-26T21:28:51.565Z,4.28
2023-04-26T21:33:53.238Z,4.32
2023-04-26T21:38:54.822Z,4.20
2023-04-26T21:43:57.210Z,3.85
2023-04-26T21:48:58.850Z,4.63
2023-04-26T21:54:00.508Z,4.47
2023-04-26T21:59:02.648Z,4.68
2023-04-26T22:04:04.519Z,4.70
2023-04-26T22:09:09.721Z,4.65
2023-04-26T22:14:11.716Z,5.40
2023-04-26T22:19:13.801Z,4.78
2023-04-26T22:24:15.794Z,4.47
2023-04-26T22:29:17.406Z,5.82
2023-04-26T22:34:20.233Z,5.03
2023-04-26T22:39:21.838Z,5.25
2023-04-26T22:44:23.447Z,6.65
2023-04-26T22:49:28.036Z,5.75
2023-04-26T22:54:29.639Z,5.65
2023-04-26T22:59:34.230Z,5.90
2023-04-26T23:04:36.115Z,5.63
2023-04-26T23:09:37.874Z,5.35
2023-04-26T23:14:39.517Z,4.75
2023-04-26T23:19:41.174Z,4.70
2023-04-26T23:24:42.878Z,5.47
2023-04-26T23:29:44.720Z,6.07
2023-04-26T23:34:46.611Z,5.30
2023-04-26T23:39:48.267Z,5.28
2023-04-26T23:44:49.876Z,5.65
2023-04-26T23:49:51.513Z,6.32
2023-04-26T23:54:53.349Z,6.32
2023-04-26T23:59:54.942Z,6.82
